createdAt,value
2016-08-27T00:00:53.052Z,22.69
2016-08-27T00:01:36.615Z,22.70
2016-08-27T00:02:35.280Z,22.71
2016-08-27T00:03:34.583Z,22.71
2016-08-27T00:04:32.654Z,22.70
2016-08-27T00:05:41.403Z,22.71
2016-08-27T00:06:41.562Z,22.71
2016-08-27T00:07:27.749Z,22.71
2016-08-27T00:08:42.943Z,22.71
2016-08-27T00:09:33.833Z,22.71
2016-08-27T00:10:34.240Z,22.70
2016-08-27T00:11:33.384Z,22.71
2016-08-27T00:12:34.380Z,22.70
2016-08-27T00:13:30.113Z,22.70
2016-08-27T00:14:30.256Z,22.70
2016-08-27T00:15:43.932Z,22.69
2016-08-27T00:16:39.152Z,22.70
2016-08-27T00:17:46.478Z,22.69
2016-08-27T00:18:39.325Z,22.70
2016-08-27T00:19:35.707Z,22.69
2016-08-27T00:20:32.980Z,22.69
2016-08-27T00:21:34.443Z,23.21
2016-08-27T00:22:33.427Z,23.28
2016-08-27T00:23:34.945Z,23.30
2016-08-27T00:24:35.032Z,23.33
2016-08-27T00:25:33.470Z,22.81
2016-08-27T00:26:41.504Z,22.75
2016-08-27T00:27:30.759Z,22.73
2016-08-27T00:28:32.555Z,22.72
2016-08-27T00:29:33.871Z,22.75
2016-08-27T00:30:38.475Z,22.72
2016-08-27T00:31:30.504Z,22.71
2016-08-27T00:32:38.605Z,22.69
2016-08-27T00:33:41.460Z,22.70
2016-08-27T00:34:37.685Z,22.70
2016-08-27T00:35:31.702Z,22.70
2016-08-27T00:36:19.665Z,22.70
2016-08-27T00:37:31.505Z,22.70
2016-08-27T00:38:17.689Z,22.69
2016-08-27T00:39:14.970Z,22.69
2016-08-27T00:40:14.630Z,22.69
2016-08-27T00:41:15.930Z,22.69
2016-08-27T00:42:12.961Z,22.69
2016-08-27T00:43:11.344Z,22.69
2016-08-27T00:44:39.404Z,22.74
2016-08-27T00:45:32.914Z,22.69
2016-08-27T00:46:34.418Z,22.69
2016-08-27T00:47:33.824Z,22.70
2016-08-27T00:48:34.211Z,22.73
2016-08-27T00:49:44.989Z,22.69
2016-08-27T00:50:35.626Z,22.68
2016-08-27T00:51:21.869Z,22.69
2016-08-27T00:52:40.940Z,22.68
2016-08-27T00:53:35.176Z,22.69
2016-08-27T00:54:33.311Z,22.71
2016-08-27T00:55:49.811Z,22.69
2016-08-27T00:56:29.833Z,22.69
2016-08-27T00:57:41.790Z,22.69
2016-08-27T00:58:33.759Z,22.70
2016-08-27T00:59:40.552Z,22.69
2016-08-27T01:00:24.522Z,22.70
2016-08-27T01:01:35.215Z,22.72
2016-08-27T01:02:28.716Z,22.69
2016-08-27T01:03:31.671Z,22.75
2016-08-27T01:04:34.520Z,22.69
2016-08-27T01:05:42.492Z,22.69
2016-08-27T01:06:28.244Z,22.68
2016-08-27T01:07:29.270Z,22.69
2016-08-27T01:08:28.554Z,22.69
2016-08-27T01:09:34.019Z,22.69
2016-08-27T01:10:34.385Z,22.69
2016-08-27T01:11:43.738Z,22.70
2016-08-27T01:12:33.094Z,22.70
2016-08-27T01:13:29.645Z,22.69
2016-08-27T01:14:31.564Z,22.68
2016-08-27T01:15:33.816Z,23.23
2016-08-27T01:16:34.601Z,23.27
2016-08-27T01:17:34.597Z,22.77
2016-08-27T01:18:47.678Z,22.73
2016-08-27T01:19:36.671Z,22.72
2016-08-27T01:20:33.667Z,22.71
2016-08-27T01:21:28.822Z,22.70
2016-08-27T01:22:37.491Z,22.70
2016-08-27T01:23:31.448Z,22.69
2016-08-27T01:24:34.580Z,22.69
2016-08-27T01:25:41.069Z,22.69
2016-08-27T01:26:31.705Z,22.70
2016-08-27T01:27:34.599Z,22.69
2016-08-27T01:28:50.492Z,22.69
2016-08-27T01:29:34.540Z,22.76
2016-08-27T01:30:27.196Z,22.69
2016-08-27T01:31:36.265Z,22.69
2016-08-27T01:32:33.999Z,22.69
2016-08-27T01:33:34.074Z,22.68
2016-08-27T01:34:35.067Z,22.69
2016-08-27T01:35:34.419Z,22.68
2016-08-27T01:36:42.601Z,22.69
2016-08-27T01:37:43.015Z,22.68
2016-08-27T01:38:34.443Z,22.68
2016-08-27T01:39:30.030Z,22.68
2016-08-27T01:40:47.386Z,22.68
2016-08-27T01:41:37.593Z,22.69
2016-08-27T01:42:22.704Z,22.68
2016-08-27T01:43:17.667Z,22.68
2016-08-27T01:44:16.985Z,22.68
2016-08-27T01:45:20.969Z,22.68
2016-08-27T01:46:18.766Z,22.71
2016-08-27T01:47:33.597Z,22.68
2016-08-27T01:48:39.843Z,22.68
2016-08-27T01:49:36.224Z,22.68
2016-08-27T01:50:29.489Z,22.68
2016-08-27T01:51:38.861Z,22.68
2016-08-27T01:52:37.626Z,22.68
2016-08-27T01:53:35.001Z,22.70
2016-08-27T01:54:33.305Z,22.68
2016-08-27T01:55:33.582Z,22.68
2016-08-27T01:56:35.912Z,22.68
2016-08-27T01:57:32.521Z,22.68
2016-08-27T01:58:36.419Z,22.69
2016-08-27T01:59:35.471Z,22.68
2016-08-27T02:00:37.653Z,22.68
2016-08-27T02:01:34.642Z,22.68
2016-08-27T02:02:28.475Z,22.69
2016-08-27T02:03:32.445Z,22.69
2016-08-27T02:04:29.372Z,22.73
2016-08-27T02:05:38.893Z,22.68
2016-08-27T02:06:33.969Z,22.68
2016-08-27T02:07:34.624Z,22.71
2016-08-27T02:08:41.549Z,22.67
2016-08-27T02:09:34.139Z,22.67
2016-08-27T02:10:36.941Z,22.68
2016-08-27T02:11:39.458Z,22.68
2016-08-27T02:12:34.184Z,22.67
2016-08-27T02:13:41.254Z,22.67
2016-08-27T02:14:34.149Z,22.67
2016-08-27T02:15:46.368Z,22.67
2016-08-27T02:16:31.620Z,22.67
2016-08-27T02:17:37.482Z,22.67
2016-08-27T02:18:48.921Z,22.66
2016-08-27T02:19:35.765Z,22.67
2016-08-27T02:20:25.900Z,22.67
2016-08-27T02:21:31.042Z,22.70
2016-08-27T02:22:27.717Z,22.66
2016-08-27T02:23:29.269Z,22.66
2016-08-27T02:24:35.498Z,22.68
2016-08-27T02:25:34.747Z,22.67
2016-08-27T02:26:45.769Z,22.67
2016-08-27T02:27:29.128Z,22.66
2016-08-27T02:28:32.770Z,22.66
2016-08-27T02:29:45.339Z,22.67
2016-08-27T02:30:33.003Z,22.67
2016-08-27T02:31:34.636Z,22.67
2016-08-27T02:32:39.849Z,22.66
2016-08-27T02:33:34.686Z,22.66
2016-08-27T02:34:28.565Z,22.66
2016-08-27T02:35:43.014Z,22.67
2016-08-27T02:36:47.295Z,22.68
2016-08-27T02:37:42.135Z,22.66
2016-08-27T02:38:37.243Z,22.65
2016-08-27T02:39:50.357Z,22.66
2016-08-27T02:40:41.778Z,22.66
2016-08-27T02:41:35.011Z,22.65
2016-08-27T02:42:34.595Z,22.66
2016-08-27T02:43:27.923Z,22.66
2016-08-27T02:44:33.696Z,22.65
2016-08-27T02:45:38.636Z,22.65
2016-08-27T02:46:31.951Z,22.65
2016-08-27T02:47:21.997Z,22.69
2016-08-27T02:48:32.016Z,22.66
2016-08-27T02:49:17.931Z,22.65
2016-08-27T02:50:14.620Z,22.65
2016-08-27T02:51:12.836Z,22.66
2016-08-27T02:52:22.389Z,22.66
2016-08-27T02:53:16.127Z,22.66
2016-08-27T02:54:52.422Z,22.65
2016-08-27T02:55:40.834Z,22.65
2016-08-27T02:56:33.479Z,22.64
2016-08-27T02:57:34.639Z,22.66
2016-08-27T02:58:41.733Z,22.64
2016-08-27T02:59:51.636Z,22.64
2016-08-27T03:00:36.626Z,22.65
2016-08-27T03:01:40.445Z,22.64
2016-08-27T03:02:53.228Z,22.65
2016-08-27T03:03:34.934Z,22.65
2016-08-27T03:04:36.241Z,22.65
2016-08-27T03:05:34.038Z,22.68
2016-08-27T03:06:29.359Z,22.64
2016-08-27T03:07:37.546Z,22.64
2016-08-27T03:08:28.779Z,22.66
2016-08-27T03:09:22.601Z,22.65
2016-08-27T03:10:29.675Z,22.65
2016-08-27T03:11:34.175Z,22.65
2016-08-27T03:12:52.178Z,22.64
2016-08-27T03:13:29.165Z,22.65
2016-08-27T03:14:40.582Z,22.65
2016-08-27T03:15:37.867Z,22.65
2016-08-27T03:16:42.664Z,22.65
2016-08-27T03:17:33.136Z,22.65
2016-08-27T03:18:33.757Z,22.65
2016-08-27T03:19:38.975Z,22.65
2016-08-27T03:20:48.391Z,22.66
2016-08-27T03:21:55.932Z,22.65
2016-08-27T03:22:35.593Z,22.65
2016-08-27T03:23:36.433Z,22.65
2016-08-27T03:24:41.274Z,22.65
2016-08-27T03:25:32.251Z,22.72
2016-08-27T03:26:35.125Z,22.65
2016-08-27T03:27:39.178Z,22.66
2016-08-27T03:28:39.758Z,22.65
2016-08-27T03:29:36.575Z,22.65
2016-08-27T03:30:47.596Z,22.66
2016-08-27T03:31:33.623Z,22.66
2016-08-27T03:32:28.836Z,22.66
2016-08-27T03:33:41.988Z,22.66
2016-08-27T03:34:31.690Z,22.65
2016-08-27T03:35:34.637Z,22.66
2016-08-27T03:36:39.941Z,22.66
2016-08-27T03:37:28.935Z,22.66
2016-08-27T03:38:37.271Z,22.65
2016-08-27T03:39:29.890Z,22.65
2016-08-27T03:40:31.717Z,22.64
2016-08-27T03:41:30.208Z,22.64
2016-08-27T03:42:49.953Z,22.65
2016-08-27T03:43:33.443Z,22.64
2016-08-27T03:44:38.642Z,22.65
2016-08-27T03:45:48.313Z,22.64
2016-08-27T03:46:31.678Z,22.65
2016-08-27T03:47:39.388Z,22.64
2016-08-27T03:48:34.209Z,22.64
2016-08-27T03:49:29.238Z,22.65
2016-08-27T03:50:28.369Z,22.65
2016-08-27T03:51:28.969Z,22.64
2016-08-27T03:52:34.099Z,22.64
2016-08-27T03:53:30.214Z,22.64
2016-08-27T03:54:17.620Z,22.64
2016-08-27T03:55:21.514Z,22.64
2016-08-27T03:56:14.315Z,22.64
2016-08-27T03:57:18.797Z,22.65
2016-08-27T03:58:16.674Z,22.64
2016-08-27T03:59:18.291Z,22.64
2016-08-27T04:00:44.904Z,22.63
2016-08-27T04:01:28.676Z,22.66
2016-08-27T04:02:22.567Z,22.64
2016-08-27T04:03:34.254Z,22.64
2016-08-27T04:04:35.076Z,22.63
2016-08-27T04:05:40.411Z,22.64
2016-08-27T04:06:27.722Z,22.64
2016-08-27T04:07:41.523Z,22.63
2016-08-27T04:08:36.430Z,22.63
2016-08-27T04:09:28.677Z,22.63
2016-08-27T04:10:33.993Z,22.63
2016-08-27T04:11:47.854Z,22.62
2016-08-27T04:12:41.934Z,22.62
2016-08-27T04:13:28.786Z,22.63
2016-08-27T04:14:46.871Z,22.62
2016-08-27T04:15:32.589Z,22.63
2016-08-27T04:16:39.903Z,22.63
2016-08-27T04:17:33.293Z,22.63
2016-08-27T04:18:30.366Z,22.62
2016-08-27T04:19:38.545Z,22.62
2016-08-27T04:20:42.168Z,22.62
2016-08-27T04:21:34.958Z,22.62
2016-08-27T04:22:50.528Z,22.62
2016-08-27T04:23:33.325Z,22.66
2016-08-27T04:24:39.275Z,22.63
2016-08-27T04:25:35.005Z,22.63
2016-08-27T04:26:40.091Z,22.62
2016-08-27T04:27:43.986Z,22.62
2016-08-27T04:28:32.782Z,22.62
2016-08-27T04:29:31.244Z,22.62
2016-08-27T04:30:31.390Z,22.62
2016-08-27T04:31:37.788Z,22.62
2016-08-27T04:32:33.232Z,22.62
2016-08-27T04:33:23.585Z,22.62
2016-08-27T04:34:38.519Z,22.61
2016-08-27T04:35:48.154Z,22.62
2016-08-27T04:36:50.708Z,22.61
2016-08-27T04:37:37.859Z,22.62
2016-08-27T04:38:34.278Z,22.62
2016-08-27T04:39:36.750Z,22.62
2016-08-27T04:40:28.101Z,22.62
2016-08-27T04:41:35.367Z,22.61
2016-08-27T04:42:34.130Z,22.62
2016-08-27T04:43:31.309Z,22.62
2016-08-27T04:44:45.198Z,22.61
2016-08-27T04:45:34.931Z,22.61
2016-08-27T04:46:43.697Z,22.63
2016-08-27T04:47:33.980Z,22.61
2016-08-27T04:48:38.351Z,22.61
2016-08-27T04:49:35.296Z,22.61
2016-08-27T04:50:42.034Z,22.61
2016-08-27T04:51:28.861Z,22.61
2016-08-27T04:52:35.659Z,22.60
2016-08-27T04:53:34.049Z,22.61
2016-08-27T04:54:35.019Z,22.61
2016-08-27T04:55:48.572Z,22.61
2016-08-27T04:56:35.496Z,22.61
2016-08-27T04:57:29.659Z,22.61
2016-08-27T04:58:34.077Z,22.61
2016-08-27T04:59:30.624Z,22.61
2016-08-27T05:00:21.154Z,22.66
2016-08-27T05:01:29.739Z,22.60
2016-08-27T05:02:18.316Z,22.60
2016-08-27T05:03:14.224Z,22.60
2016-08-27T05:04:19.709Z,22.60
2016-08-27T05:05:29.708Z,22.59
2016-08-27T05:06:49.846Z,22.59
2016-08-27T05:07:36.599Z,22.60
2016-08-27T05:08:34.368Z,22.60
2016-08-27T05:09:33.140Z,22.59
2016-08-27T05:10:39.269Z,22.60
2016-08-27T05:11:33.713Z,22.64
2016-08-27T05:12:34.882Z,22.59
2016-08-27T05:13:29.759Z,22.59
2016-08-27T05:14:28.137Z,22.59
2016-08-27T05:15:43.899Z,22.59
2016-08-27T05:16:40.048Z,22.59
2016-08-27T05:17:33.595Z,22.64
2016-08-27T05:18:37.208Z,22.61
2016-08-27T05:19:34.753Z,22.59
2016-08-27T05:20:38.962Z,22.66
2016-08-27T05:21:36.454Z,22.58
2016-08-27T05:22:38.408Z,22.58
2016-08-27T05:23:42.427Z,22.59
2016-08-27T05:25:40.964Z,22.58
2016-08-27T05:26:38.726Z,22.66
2016-08-27T05:27:39.715Z,22.59
2016-08-27T05:28:39.798Z,22.59
2016-08-27T05:29:36.817Z,22.58
2016-08-27T05:30:44.578Z,22.58
2016-08-27T05:31:35.476Z,22.58
2016-08-27T05:32:28.201Z,22.59
2016-08-27T05:33:34.917Z,22.58
2016-08-27T05:34:34.392Z,22.58
2016-08-27T05:35:33.227Z,22.58
2016-08-27T05:36:37.753Z,22.59
2016-08-27T05:37:33.502Z,22.58
2016-08-27T05:38:45.170Z,22.58
2016-08-27T05:39:36.609Z,22.58
2016-08-27T05:40:34.615Z,22.61
2016-08-27T05:41:34.537Z,22.58
2016-08-27T05:42:33.295Z,22.58
2016-08-27T05:43:34.841Z,22.58
2016-08-27T05:44:34.570Z,22.58
2016-08-27T05:45:34.629Z,22.58
2016-08-27T05:46:34.948Z,22.58
2016-08-27T05:47:36.721Z,22.58
2016-08-27T05:48:33.520Z,22.58
2016-08-27T05:49:32.840Z,22.58
2016-08-27T05:50:33.686Z,22.58
2016-08-27T05:51:33.226Z,22.58
2016-08-27T05:52:34.013Z,22.58
2016-08-27T05:53:32.432Z,22.58
2016-08-27T05:54:43.458Z,22.57
2016-08-27T05:55:33.909Z,22.58
2016-08-27T05:56:34.505Z,22.58
2016-08-27T05:57:42.033Z,22.58
2016-08-27T05:58:38.313Z,22.58
2016-08-27T05:59:36.722Z,22.58
2016-08-27T06:00:34.566Z,22.57
2016-08-27T06:01:45.191Z,22.57
2016-08-27T06:02:34.742Z,22.57
2016-08-27T06:03:34.702Z,22.57
2016-08-27T06:04:33.693Z,22.56
2016-08-27T06:05:28.393Z,22.56
2016-08-27T06:06:13.109Z,22.56
2016-08-27T06:07:21.778Z,22.56
2016-08-27T06:08:29.558Z,22.55
2016-08-27T06:09:14.199Z,22.56
2016-08-27T06:10:26.421Z,22.56
2016-08-27T06:11:42.123Z,22.56
2016-08-27T06:12:28.209Z,22.56
2016-08-27T06:13:34.639Z,22.56
2016-08-27T06:14:41.417Z,22.56
2016-08-27T06:15:33.681Z,22.56
2016-08-27T06:16:33.607Z,22.56
2016-08-27T06:17:41.267Z,22.56
2016-08-27T06:18:42.357Z,22.56
2016-08-27T06:19:35.792Z,22.56
2016-08-27T06:20:35.136Z,22.56
2016-08-27T06:21:37.740Z,22.55
2016-08-27T06:22:34.345Z,22.56
2016-08-27T06:23:32.197Z,22.56
2016-08-27T06:24:29.889Z,22.56
2016-08-27T06:25:27.870Z,22.57
2016-08-27T06:26:36.544Z,22.59
2016-08-27T06:27:38.805Z,22.59
2016-08-27T06:28:33.782Z,22.60
2016-08-27T06:29:35.038Z,22.62
2016-08-27T06:30:37.648Z,22.61
2016-08-27T06:31:32.842Z,22.63
2016-08-27T06:32:48.372Z,22.61
2016-08-27T06:33:36.418Z,22.61
2016-08-27T06:34:18.274Z,22.62
2016-08-27T06:35:34.924Z,22.63
2016-08-27T06:36:48.196Z,22.62
2016-08-27T06:37:34.803Z,22.63
2016-08-27T06:38:37.285Z,22.64
2016-08-27T06:39:38.718Z,22.65
2016-08-27T06:40:34.196Z,22.69
2016-08-27T06:41:29.210Z,22.66
2016-08-27T06:42:33.489Z,22.66
2016-08-27T06:43:35.544Z,22.66
2016-08-27T06:44:33.678Z,22.66
2016-08-27T06:45:32.734Z,22.66
2016-08-27T06:46:35.071Z,22.66
2016-08-27T06:47:28.931Z,22.66
2016-08-27T06:48:43.818Z,22.67
2016-08-27T06:49:33.910Z,22.66
2016-08-27T06:50:29.203Z,22.67
2016-08-27T06:51:34.423Z,22.66
2016-08-27T06:52:29.650Z,22.66
2016-08-27T06:53:32.328Z,22.67
2016-08-27T06:54:31.575Z,22.67
2016-08-27T06:55:40.763Z,22.69
2016-08-27T06:56:44.350Z,22.68
2016-08-27T06:57:31.878Z,22.68
2016-08-27T06:59:35.615Z,23.26
2016-08-27T07:00:28.582Z,23.30
2016-08-27T07:01:33.715Z,23.32
2016-08-27T07:02:41.006Z,23.33
2016-08-27T07:03:34.486Z,23.34
2016-08-27T07:04:34.630Z,23.35
2016-08-27T07:05:34.744Z,23.34
2016-08-27T07:06:38.091Z,23.34
2016-08-27T07:07:33.928Z,23.34
2016-08-27T07:08:33.639Z,23.36
2016-08-27T07:09:19.100Z,23.37
2016-08-27T07:10:28.008Z,22.84
2016-08-27T07:11:28.205Z,22.80
2016-08-27T07:12:15.909Z,22.78
2016-08-27T07:13:19.052Z,22.75
2016-08-27T07:14:14.813Z,22.77
2016-08-27T07:15:13.130Z,22.75
2016-08-27T07:16:41.632Z,22.76
2016-08-27T07:17:38.706Z,22.76
2016-08-27T07:18:43.440Z,22.77
2016-08-27T07:19:32.911Z,22.76
2016-08-27T07:20:36.454Z,22.81
2016-08-27T07:21:32.824Z,22.77
2016-08-27T07:22:35.259Z,22.78
2016-08-27T07:23:36.907Z,22.78
2016-08-27T07:24:36.299Z,22.80
2016-08-27T07:25:30.460Z,22.79
2016-08-27T07:26:34.748Z,22.81
2016-08-27T07:27:42.850Z,22.81
2016-08-27T07:28:39.527Z,22.81
2016-08-27T07:29:40.093Z,22.81
2016-08-27T07:30:36.823Z,22.83
2016-08-27T07:31:32.998Z,22.82
2016-08-27T07:32:34.447Z,22.82
2016-08-27T07:33:36.234Z,22.82
2016-08-27T07:34:34.687Z,22.82
2016-08-27T07:35:34.080Z,22.81
2016-08-27T07:36:36.693Z,22.81
2016-08-27T07:37:39.045Z,22.82
2016-08-27T07:38:42.643Z,22.80
2016-08-27T07:39:33.375Z,23.35
2016-08-27T07:40:31.555Z,23.42
2016-08-27T07:41:20.192Z,23.44
2016-08-27T07:42:32.439Z,23.46
2016-08-27T07:43:22.308Z,22.95
2016-08-27T07:44:38.185Z,22.89
2016-08-27T07:45:50.674Z,22.87
2016-08-27T07:46:32.811Z,22.87
2016-08-27T07:47:28.574Z,23.39
2016-08-27T07:48:28.571Z,23.44
2016-08-27T07:49:14.181Z,23.46
2016-08-27T07:50:31.625Z,23.01
2016-08-27T07:51:21.083Z,22.90
2016-08-27T07:52:37.565Z,22.91
2016-08-27T07:53:27.568Z,22.87
2016-08-27T07:54:39.361Z,22.87
2016-08-27T07:55:27.772Z,22.86
2016-08-27T07:56:23.003Z,22.86
2016-08-27T07:57:33.649Z,22.87
2016-08-27T07:58:34.917Z,22.87
2016-08-27T07:59:33.366Z,22.87
2016-08-27T08:00:43.907Z,22.86
2016-08-27T08:01:33.064Z,22.87
2016-08-27T08:02:33.757Z,22.87
2016-08-27T08:03:28.975Z,22.87
2016-08-27T08:04:32.371Z,22.87
2016-08-27T08:05:27.817Z,22.88
2016-08-27T08:06:29.557Z,22.87
2016-08-27T08:07:35.903Z,22.87
2016-08-27T08:08:51.099Z,22.87
2016-08-27T08:09:35.201Z,22.88
2016-08-27T08:10:33.456Z,22.93
2016-08-27T08:11:44.294Z,22.87
2016-08-27T08:12:33.906Z,22.87
2016-08-27T08:13:34.420Z,22.87
2016-08-27T08:14:38.847Z,22.87
2016-08-27T08:15:28.729Z,22.87
2016-08-27T08:16:15.217Z,22.88
2016-08-27T08:17:16.744Z,22.88
2016-08-27T08:18:12.921Z,22.93
2016-08-27T08:19:14.244Z,22.88
2016-08-27T08:20:14.670Z,22.90
2016-08-27T08:21:13.187Z,22.88
2016-08-27T08:22:13.068Z,22.92
2016-08-27T08:23:31.611Z,22.88
2016-08-27T08:24:39.124Z,22.89
2016-08-27T08:25:31.108Z,22.88
2016-08-27T08:26:33.608Z,22.89
2016-08-27T08:27:41.563Z,22.90
2016-08-27T08:28:38.700Z,22.89
2016-08-27T08:29:34.608Z,22.89
2016-08-27T08:30:27.871Z,22.90
2016-08-27T08:31:32.052Z,22.91
2016-08-27T08:32:31.641Z,23.41
2016-08-27T08:33:34.121Z,23.51
2016-08-27T08:34:37.752Z,23.52
2016-08-27T08:35:33.436Z,23.54
2016-08-27T08:36:35.529Z,23.56
2016-08-27T08:37:33.857Z,23.55
2016-08-27T08:38:38.980Z,23.57
2016-08-27T08:39:34.133Z,23.19
2016-08-27T08:40:39.230Z,23.04
2016-08-27T08:41:30.098Z,23.00
2016-08-27T08:42:33.151Z,23.01
2016-08-27T08:43:33.491Z,23.00
2016-08-27T08:44:40.468Z,23.04
2016-08-27T08:45:33.047Z,23.03
2016-08-27T08:46:33.576Z,23.53
2016-08-27T08:47:26.092Z,23.07
2016-08-27T08:48:35.154Z,23.08
2016-08-27T08:49:28.687Z,23.04
2016-08-27T08:50:33.623Z,23.03
2016-08-27T08:51:28.054Z,23.04
2016-08-27T08:52:46.940Z,23.04
2016-08-27T08:53:30.393Z,23.05
2016-08-27T08:54:34.779Z,23.05
2016-08-27T08:55:34.778Z,23.04
2016-08-27T08:56:31.905Z,23.05
2016-08-27T08:57:44.848Z,23.05
2016-08-27T08:58:29.013Z,23.06
2016-08-27T08:59:29.655Z,23.08
2016-08-27T09:00:35.122Z,23.08
2016-08-27T09:01:34.254Z,23.09
2016-08-27T09:02:24.852Z,23.09
2016-08-27T09:03:17.567Z,23.10
2016-08-27T09:04:28.616Z,23.10
2016-08-27T09:05:27.919Z,23.10
2016-08-27T09:06:33.525Z,23.11
2016-08-27T09:07:25.073Z,23.11
2016-08-27T09:08:28.331Z,23.12
2016-08-27T09:09:22.710Z,23.12
2016-08-27T09:10:32.641Z,23.13
2016-08-27T09:11:28.841Z,23.64
2016-08-27T09:12:30.564Z,23.73
2016-08-27T09:13:19.615Z,23.77
2016-08-27T09:14:32.238Z,23.75
2016-08-27T09:15:28.872Z,23.76
2016-08-27T09:16:29.781Z,23.76
2016-08-27T09:17:22.158Z,23.79
2016-08-27T09:18:20.450Z,23.78
2016-08-27T09:19:34.430Z,23.80
2016-08-27T09:20:34.111Z,23.79
2016-08-27T09:21:30.148Z,23.79
2016-08-27T09:22:33.026Z,23.78
2016-08-27T09:23:12.016Z,23.78
2016-08-27T09:24:12.864Z,23.80
2016-08-27T09:25:12.881Z,23.77
2016-08-27T09:26:12.817Z,23.30
2016-08-27T09:27:12.806Z,23.20
2016-08-27T09:28:33.101Z,23.21
2016-08-27T09:29:33.572Z,23.18
2016-08-27T09:30:34.054Z,23.17
2016-08-27T09:31:35.415Z,23.71
2016-08-27T09:32:30.013Z,23.77
2016-08-27T09:33:33.315Z,23.39
2016-08-27T09:34:21.964Z,23.26
2016-08-27T09:35:22.923Z,23.21
2016-08-27T09:36:27.977Z,23.18
2016-08-27T09:37:14.603Z,23.18
2016-08-27T09:38:33.752Z,23.17
2016-08-27T09:39:20.499Z,23.16
2016-08-27T09:40:26.541Z,23.15
2016-08-27T09:41:24.221Z,23.16
2016-08-27T09:42:23.105Z,23.15
2016-08-27T09:43:33.519Z,23.15
2016-08-27T09:44:30.799Z,23.14
2016-08-27T09:45:29.655Z,23.14
2016-08-27T09:46:39.444Z,23.15
2016-08-27T09:47:28.537Z,23.14
2016-08-27T09:48:28.322Z,23.14
2016-08-27T09:49:20.563Z,23.15
2016-08-27T09:50:31.091Z,23.14
2016-08-27T09:51:34.314Z,23.15
2016-08-27T09:52:22.902Z,23.14
2016-08-27T09:53:27.342Z,23.17
2016-08-27T09:54:33.008Z,23.17
2016-08-27T09:55:16.778Z,23.17
2016-08-27T09:56:27.888Z,23.17
2016-08-27T09:57:14.104Z,23.17
2016-08-27T09:58:23.387Z,23.16
2016-08-27T09:59:29.740Z,23.16
2016-08-27T10:00:31.330Z,23.17
2016-08-27T10:01:16.769Z,23.16
2016-08-27T10:02:21.475Z,23.17
2016-08-27T10:03:30.837Z,23.17
2016-08-27T10:04:19.273Z,23.18
2016-08-27T10:05:20.919Z,23.17
2016-08-27T10:06:20.374Z,23.17
2016-08-27T10:07:25.895Z,23.17
2016-08-27T10:08:19.713Z,23.17
2016-08-27T10:09:22.970Z,23.17
2016-08-27T10:10:16.963Z,23.17
2016-08-27T10:11:20.452Z,23.18
2016-08-27T10:12:23.847Z,23.18
2016-08-27T10:13:18.334Z,23.19
2016-08-27T10:14:31.319Z,23.20
2016-08-27T10:15:16.182Z,23.19
2016-08-27T10:16:22.843Z,23.19
2016-08-27T10:17:21.726Z,23.19
2016-08-27T10:18:34.972Z,23.19
2016-08-27T10:19:23.726Z,23.22
2016-08-27T10:20:16.477Z,23.20
2016-08-27T10:21:29.428Z,23.21
2016-08-27T10:22:30.159Z,23.21
2016-08-27T10:23:17.980Z,23.21
2016-08-27T10:24:12.867Z,23.19
2016-08-27T10:25:15.068Z,23.75
2016-08-27T10:26:27.993Z,23.45
2016-08-27T10:27:28.701Z,23.38
2016-08-27T10:28:17.004Z,23.32
2016-08-27T10:29:16.514Z,23.33
2016-08-27T10:30:11.654Z,23.32
2016-08-27T10:31:14.119Z,23.32
2016-08-27T10:32:13.481Z,23.36
2016-08-27T10:33:12.034Z,23.32
2016-08-27T10:34:28.153Z,23.31
2016-08-27T10:35:35.580Z,23.31
2016-08-27T10:36:27.275Z,23.31
2016-08-27T10:37:28.221Z,23.30
2016-08-27T10:38:31.961Z,23.31
2016-08-27T10:39:33.355Z,23.39
2016-08-27T10:40:15.179Z,23.33
2016-08-27T10:41:30.875Z,23.34
2016-08-27T10:42:22.929Z,23.38
2016-08-27T10:43:32.418Z,23.34
2016-08-27T10:44:24.087Z,23.34
2016-08-27T10:45:20.246Z,23.33
2016-08-27T10:46:25.235Z,23.35
2016-08-27T10:47:20.944Z,23.35
2016-08-27T10:48:16.182Z,23.35
2016-08-27T10:49:33.713Z,23.36
2016-08-27T10:50:36.102Z,23.37
2016-08-27T10:51:20.749Z,23.36
2016-08-27T10:52:14.916Z,23.37
2016-08-27T10:53:20.762Z,23.37
2016-08-27T10:54:22.046Z,23.38
2016-08-27T10:55:20.267Z,23.39
2016-08-27T10:56:34.415Z,23.39
2016-08-27T10:57:28.869Z,23.39
2016-08-27T10:58:18.954Z,23.40
2016-08-27T10:59:22.208Z,23.40
2016-08-27T11:00:17.076Z,23.43
2016-08-27T11:01:29.013Z,23.40
2016-08-27T11:02:28.312Z,23.41
2016-08-27T11:03:22.279Z,23.41
2016-08-27T11:04:23.031Z,23.42
2016-08-27T11:05:24.148Z,23.42
2016-08-27T11:06:33.670Z,23.42
2016-08-27T11:07:27.043Z,23.43
2016-08-27T11:08:24.782Z,23.43
2016-08-27T11:09:21.447Z,23.42
2016-08-27T11:10:21.215Z,23.59
2016-08-27T11:11:29.132Z,23.51
2016-08-27T11:12:22.895Z,23.47
2016-08-27T11:13:17.585Z,23.46
2016-08-27T11:14:32.580Z,23.46
2016-08-27T11:15:16.467Z,23.45
2016-08-27T11:16:34.755Z,23.44
2016-08-27T11:17:33.226Z,23.44
2016-08-27T11:18:31.596Z,23.45
2016-08-27T11:19:21.004Z,23.44
2016-08-27T11:20:24.839Z,23.45
2016-08-27T11:21:28.702Z,23.44
2016-08-27T11:22:28.811Z,23.45
2016-08-27T11:23:24.834Z,23.46
2016-08-27T11:24:22.159Z,23.45
2016-08-27T11:25:28.104Z,23.46
2016-08-27T11:26:20.635Z,23.50
2016-08-27T11:27:19.375Z,23.50
2016-08-27T11:28:20.271Z,23.51
2016-08-27T11:29:22.005Z,23.50
2016-08-27T11:30:36.218Z,23.50
2016-08-27T11:31:18.482Z,23.51
2016-08-27T11:32:15.936Z,23.48
2016-08-27T11:33:21.365Z,23.47
2016-08-27T11:34:13.725Z,23.48
2016-08-27T11:35:12.827Z,23.46
2016-08-27T11:36:12.301Z,23.45
2016-08-27T11:37:13.669Z,23.44
2016-08-27T11:38:15.299Z,23.44
2016-08-27T11:39:14.639Z,23.43
2016-08-27T11:40:12.345Z,23.44
2016-08-27T11:41:19.360Z,23.42
2016-08-27T11:42:12.460Z,23.40
2016-08-27T11:43:12.116Z,23.44
2016-08-27T11:44:13.438Z,23.40
2016-08-27T11:45:15.826Z,23.40
2016-08-27T11:46:12.379Z,23.40
2016-08-27T11:47:13.669Z,23.40
2016-08-27T11:48:12.551Z,23.40
2016-08-27T11:49:12.258Z,23.44
2016-08-27T11:50:11.334Z,23.41
2016-08-27T11:51:13.074Z,23.96
2016-08-27T11:52:14.607Z,24.03
2016-08-27T11:53:27.345Z,24.06
2016-08-27T11:54:32.030Z,24.06
2016-08-27T11:55:18.752Z,24.07
2016-08-27T11:56:17.911Z,24.09
2016-08-27T11:57:22.150Z,24.10
2016-08-27T11:58:17.139Z,24.10
2016-08-27T11:59:22.683Z,24.09
2016-08-27T12:00:26.255Z,24.10
2016-08-27T12:01:15.740Z,23.73
2016-08-27T12:02:19.735Z,23.55
2016-08-27T12:03:22.609Z,23.50
2016-08-27T12:04:27.775Z,23.47
2016-08-27T12:05:16.174Z,23.45
2016-08-27T12:06:23.045Z,23.43
2016-08-27T12:07:20.040Z,23.43
2016-08-27T12:08:21.451Z,23.42
2016-08-27T12:09:33.553Z,23.42
2016-08-27T12:10:22.636Z,23.41
2016-08-27T12:11:27.824Z,23.42
2016-08-27T12:12:20.606Z,23.41
2016-08-27T12:13:32.702Z,23.95
2016-08-27T12:14:22.072Z,24.00
2016-08-27T12:15:22.895Z,24.02
2016-08-27T12:16:20.217Z,24.03
2016-08-27T12:17:34.849Z,24.04
2016-08-27T12:18:33.073Z,24.04
2016-08-27T12:19:13.916Z,24.04
2016-08-27T12:20:19.766Z,24.05
2016-08-27T12:21:36.156Z,24.04
2016-08-27T12:22:26.394Z,24.04
2016-08-27T12:23:22.350Z,24.05
2016-08-27T12:24:31.624Z,24.04
2016-08-27T12:25:31.671Z,24.05
2016-08-27T12:26:30.665Z,24.04
2016-08-27T12:27:14.013Z,23.50
2016-08-27T12:28:32.472Z,23.45
2016-08-27T12:29:17.169Z,23.42
2016-08-27T12:30:22.504Z,23.41
2016-08-27T12:31:22.201Z,23.40
2016-08-27T12:32:18.104Z,23.39
2016-08-27T12:33:22.740Z,23.38
2016-08-27T12:34:25.155Z,23.38
2016-08-27T12:35:31.756Z,23.38
2016-08-27T12:36:20.807Z,23.37
2016-08-27T12:37:31.596Z,23.38
2016-08-27T12:38:21.769Z,23.40
2016-08-27T12:39:14.976Z,23.39
2016-08-27T12:40:22.476Z,23.37
2016-08-27T12:41:13.208Z,23.37
2016-08-27T12:42:14.428Z,23.36
2016-08-27T12:43:11.896Z,23.37
2016-08-27T12:44:13.109Z,23.37
2016-08-27T12:45:15.271Z,23.36
2016-08-27T12:46:14.898Z,23.36
2016-08-27T12:47:32.093Z,23.35
2016-08-27T12:48:23.428Z,23.38
2016-08-27T12:49:31.040Z,23.35
2016-08-27T12:50:27.525Z,23.36
2016-08-27T12:51:17.059Z,23.35
2016-08-27T12:52:34.434Z,23.35
2016-08-27T12:53:30.047Z,23.34
2016-08-27T12:54:21.872Z,23.36